This is the latest recevied weather packets stored in our database for station/object WX5RP. If no packets are shown the sender has not sent any weather packets the latest 10 day(s).
| Time | Temp. | Humidity | Pressure | Rain* | Wind** | Luminosity | Snow |
|---|---|---|---|---|---|---|---|
| 1777682720 | 22.78° C | 23% | 1014.8 hPa | 0 mm | - | 226 W/m² | - |
| 1777682117 | 23.33° C | 20% | 1015.2 hPa | 0 mm | - | 273 W/m² | - |
| 1777681519 | 23.33° C | 17% | 1015.6 hPa | 0 mm | - | 383 W/m² | - |
| 1777680917 | 23.33° C | 17% | 1015.6 hPa | 0 mm | - | 439 W/m² | - |
| 1777680317 | 22.78° C | 20% | 1015.5 hPa | 0 mm | - | 508 W/m² | - |
| 1777679717 | 22.78° C | 20% | 1015.4 hPa | 0 mm | - | 176 W/m² | - |
| 1777679116 | 23.33° C | 19% | 1015.4 hPa | 0 mm | - | 512 W/m² | - |
| 1777678516 | 22.78° C | 20% | 1015.8 hPa | 0 mm | - | 564 W/m² | - |
| 1777677917 | 23.33° C | 18% | 1015.6 hPa | 0 mm | - | 360 W/m² | - |
| 1777677316 | 23.33° C | 19% | 1015.6 hPa | 0 mm | - | 618 W/m² | - |
| 1777676716 | 24.44° C | 18% | 1016.3 hPa | 0 mm | - | 529 W/m² | - |
| 1777676116 | 23.33° C | 18% | 1016.4 hPa | 0 mm | - | 817 W/m² | - |
| 1777675516 | 23.33° C | 20% | 1016.1 hPa | 0 mm | - | 586 W/m² | - |
| 1777674916 | 23.33° C | 21% | 1016.6 hPa | 0 mm | - | 647 W/m² | - |
| 1777674318 | 23.33° C | 19% | 1017.3 hPa | 0 mm | - | 741 W/m² | - |
| 1777673716 | 22.78° C | 19% | 1017.3 hPa | 0 mm | - | 624 W/m² | - |
| 1777673116 | 23.33° C | 18% | 1017 hPa | 0 mm | - | 470 W/m² | - |
| 1777672516 | 23.33° C | 17% | 1017.5 hPa | 0 mm | - | 819 W/m² | - |
| 1777671916 | 22.78° C | 18% | 1017.5 hPa | 0 mm | - | 549 W/m² | - |
| 1777671316 | 22.78° C | 15% | 1017.3 hPa | 0 mm | - | 434 W/m² | - |
| 1777670716 | 22.78° C | 16% | 1017.8 hPa | 0 mm | - | 629 W/m² | - |
| 1777670116 | 22.78° C | 16% | 1017.8 hPa | 0 mm | - | 679 W/m² | - |
| 1777669516 | 22.78° C | 16% | 1017.6 hPa | 0 mm | - | 841 W/m² | - |
| 1777668916 | 22.22° C | 19% | 1018 hPa | 0 mm | - | 836 W/m² | - |
| 1777668316 | 22.22° C | 17% | 1017.7 hPa | 0 mm | - | 795 W/m² | - |
* Rain latest hour (hover to see other rain measurements)
** Current wind speed in m/s (hover to see current wind gust speed)